createdAt,value
2023-02-02T00:00:53.637Z,101136.84
2023-02-02T00:03:21.294Z,101136.84
2023-02-02T00:05:50.262Z,101138.56
2023-02-02T00:08:19.587Z,101140.28
2023-02-02T00:10:47.626Z,101146.41
2023-02-02T00:13:15.305Z,101156.00
2023-02-02T00:15:42.977Z,101161.22
2023-02-02T00:18:10.642Z,101166.47
2023-02-02T00:20:38.311Z,101175.13
2023-02-02T00:23:06.033Z,101176.00
2023-02-02T00:25:35.105Z,101190.00
2023-02-02T00:28:02.825Z,101177.72
2023-02-02T00:30:30.623Z,101182.09
2023-02-02T00:32:58.340Z,101187.28
2023-02-02T00:35:26.260Z,101171.47
2023-02-02T00:37:53.994Z,101188.97
2023-02-02T00:40:21.654Z,101187.28
2023-02-02T00:42:50.705Z,101185.53
2023-02-02T00:45:17.766Z,101192.50
2023-02-02T00:47:46.601Z,101193.34
2023-02-02T00:50:15.391Z,101195.09
2023-02-02T00:52:43.138Z,101190.66
2023-02-02T00:55:11.227Z,101192.44
2023-02-02T00:57:38.990Z,101198.63
2023-02-02T01:00:10.054Z,101196.84
2023-02-02T01:02:37.759Z,101203.00
2023-02-02T01:05:05.844Z,101196.97
2023-02-02T01:07:33.530Z,101204.88
2023-02-02T01:10:01.223Z,101212.78
2023-02-02T01:12:28.898Z,101217.06
2023-02-02T01:14:56.570Z,101223.16
2023-02-02T01:17:25.602Z,101224.91
2023-02-02T01:19:53.314Z,101231.06
2023-02-02T01:22:21.016Z,101232.75
2023-02-02T01:24:48.773Z,101235.41
2023-02-02T01:27:16.850Z,101229.31
2023-02-02T01:29:44.536Z,101244.09
2023-02-02T01:32:12.255Z,101245.78
2023-02-02T01:34:41.881Z,101249.25
2023-02-02T01:37:09.573Z,101253.66
2023-02-02T01:39:37.387Z,101256.22
2023-02-02T01:42:07.063Z,101254.47
2023-02-02T01:45:08.325Z,101252.78
2023-02-02T01:47:37.924Z,101260.59
2023-02-02T01:50:07.606Z,101269.31
2023-02-02T01:52:35.673Z,101271.09
2023-02-02T01:55:08.271Z,101265.88
2023-02-02T01:57:39.396Z,101272.84
2023-02-02T02:00:08.963Z,101276.25
2023-02-02T02:02:36.710Z,101279.75
2023-02-02T02:05:04.711Z,101274.50
2023-02-02T02:07:33.722Z,101283.25
2023-02-02T02:10:01.392Z,101296.34
2023-02-02T02:12:29.050Z,101300.72
2023-02-02T02:15:14.081Z,101294.59
2023-02-02T02:17:49.811Z,101300.72
2023-02-02T02:21:17.379Z,101313.84
2023-02-02T02:24:43.628Z,101324.38
2023-02-02T02:27:22.563Z,101323.53
2023-02-02T02:30:12.369Z,101316.53
2023-02-02T02:32:44.352Z,101320.84
2023-02-02T02:35:14.949Z,101317.34
2023-02-02T02:37:46.400Z,101325.22
2023-02-02T02:40:17.036Z,101331.31
2023-02-02T02:42:46.570Z,101327.78
2023-02-02T02:45:14.268Z,101337.34
2023-02-02T02:47:43.602Z,101343.41
2023-02-02T02:50:12.068Z,101339.03
2023-02-02T02:52:39.745Z,101340.81
2023-02-02T02:55:08.226Z,101351.38
2023-02-02T02:57:42.416Z,101348.78
2023-02-02T03:00:17.992Z,101359.22
2023-02-02T03:02:50.298Z,101362.69
2023-02-02T03:05:24.666Z,101363.56
2023-02-02T03:07:55.033Z,101364.47
2023-02-02T03:10:23.948Z,101358.25
2023-02-02T03:12:51.967Z,101361.75
2023-02-02T03:15:19.873Z,101380.06
2023-02-02T03:17:49.167Z,101380.91
2023-02-02T03:20:17.505Z,101372.25
2023-02-02T03:22:45.169Z,101375.81
2023-02-02T03:25:12.838Z,101381.06
2023-02-02T03:27:40.543Z,101382.81
2023-02-02T03:30:09.842Z,101389.78
2023-02-02T03:32:37.538Z,101393.28
2023-02-02T03:35:07.405Z,101388.00
2023-02-02T03:37:35.165Z,101388.88
2023-02-02T03:40:02.825Z,101399.34
2023-02-02T03:42:30.540Z,101402.00
2023-02-02T03:44:58.214Z,101404.69
2023-02-02T03:47:27.524Z,101420.34
2023-02-02T03:49:55.195Z,101416.81
2023-02-02T03:52:24.286Z,101412.53
2023-02-02T03:54:52.026Z,101418.59
2023-02-02T03:57:19.728Z,101418.59
2023-02-02T03:59:47.431Z,101420.31
2023-02-02T04:02:15.103Z,101429.97
2023-02-02T04:04:42.778Z,101435.22
2023-02-02T04:07:10.447Z,101445.69
2023-02-02T04:09:39.509Z,101443.09
2023-02-02T04:12:07.530Z,101439.59
2023-02-02T04:14:35.197Z,101436.06
2023-02-02T04:17:02.873Z,101438.69
2023-02-02T04:19:30.543Z,101448.25
2023-02-02T04:21:58.210Z,101456.97
2023-02-02T04:24:25.882Z,101452.59
2023-02-02T04:26:54.971Z,101456.06
2023-02-02T04:29:22.654Z,101453.47
2023-02-02T04:31:50.330Z,101447.34
2023-02-02T04:34:18.181Z,101459.59
2023-02-02T04:36:45.852Z,101464.81
2023-02-02T04:39:13.514Z,101464.84
2023-02-02T04:41:41.630Z,101465.69
2023-02-02T04:44:15.185Z,101466.56
2023-02-02T04:46:43.089Z,101465.66
2023-02-02T04:49:11.387Z,101462.16
2023-02-02T04:51:39.185Z,101467.44
2023-02-02T04:54:06.961Z,101463.88
2023-02-02T04:56:34.634Z,101479.56
2023-02-02T04:59:02.335Z,101490.06
2023-02-02T05:01:31.414Z,101487.50
2023-02-02T05:03:59.149Z,101480.56
2023-02-02T05:06:26.848Z,101488.44
2023-02-02T05:08:54.511Z,101490.16
2023-02-02T05:11:23.152Z,101492.78
2023-02-02T05:13:51.510Z,101484.91
2023-02-02T05:16:19.245Z,101489.25
2023-02-02T05:18:51.241Z,101490.16
2023-02-02T05:21:18.899Z,101497.13
2023-02-02T05:23:46.617Z,101492.75
2023-02-02T05:26:17.001Z,101494.50
2023-02-02T05:28:45.099Z,101493.66
2023-02-02T05:31:12.915Z,101504.97
2023-02-02T05:33:40.621Z,101507.56
2023-02-02T05:36:09.916Z,101517.13
2023-02-02T05:38:37.840Z,101526.72
2023-02-02T05:41:05.919Z,101530.97
2023-02-02T05:43:33.740Z,101518.72
2023-02-02T05:46:01.585Z,101526.53
2023-02-02T05:48:29.743Z,101519.50
2023-02-02T05:51:01.075Z,101526.47
2023-02-02T05:53:30.603Z,101529.94
2023-02-02T05:55:58.327Z,101533.47
2023-02-02T05:58:26.050Z,101536.94
2023-02-02T06:00:56.417Z,101544.78
2023-02-02T06:03:24.491Z,101543.88
2023-02-02T06:05:52.294Z,101548.25
2023-02-02T06:08:20.041Z,101552.56
2023-02-02T06:10:49.170Z,101555.19
2023-02-02T06:13:16.897Z,101558.69
2023-02-02T06:15:44.604Z,101549.09
2023-02-02T06:18:12.449Z,101554.38
2023-02-02T06:20:40.145Z,101562.25
2023-02-02T06:23:07.876Z,101569.31
2023-02-02T06:25:35.631Z,101572.81
2023-02-02T06:28:04.986Z,101569.28
2023-02-02T06:30:32.687Z,101578.06
2023-02-02T06:33:00.553Z,101574.63
2023-02-02T06:35:28.312Z,101589.47
2023-02-02T06:37:56.003Z,101589.44
2023-02-02T06:40:23.852Z,101592.88
2023-02-02T06:42:56.908Z,101601.59
2023-02-02T06:45:26.328Z,101606.00
2023-02-02T06:47:54.325Z,101612.13
2023-02-02T06:50:22.096Z,101616.50
2023-02-02T06:52:50.012Z,101621.72
2023-02-02T06:55:17.857Z,101632.22
2023-02-02T06:57:45.547Z,101623.47
2023-02-02T07:00:14.360Z,101624.34
2023-02-02T07:02:45.898Z,101621.72
2023-02-02T07:05:13.681Z,101629.53
2023-02-02T07:07:41.409Z,101628.69
2023-02-02T07:10:10.380Z,101632.16
2023-02-02T07:12:58.051Z,101648.75
2023-02-02T07:15:26.147Z,101646.97
2023-02-02T07:17:56.799Z,101640.81
2023-02-02T07:20:24.470Z,101645.16
2023-02-02T07:22:52.140Z,101660.03
2023-02-02T07:25:19.848Z,101653.91
2023-02-02T07:27:48.053Z,101671.38
2023-02-02T07:30:17.132Z,101672.25
2023-02-02T07:32:47.751Z,101672.25
2023-02-02T07:35:16.889Z,101670.44
2023-02-02T07:37:44.663Z,101671.28
2023-02-02T07:40:13.238Z,101680.91
2023-02-02T07:42:40.946Z,101690.53
2023-02-02T07:45:27.039Z,101687.91
2023-02-02T07:47:57.404Z,101692.28
2023-02-02T07:50:26.496Z,101699.31
2023-02-02T07:52:54.211Z,101702.81
2023-02-02T07:55:21.898Z,101704.56
2023-02-02T07:57:49.563Z,101706.34
2023-02-02T08:00:18.017Z,101706.34
2023-02-02T08:02:45.750Z,101716.84
2023-02-02T08:05:13.936Z,101722.03
2023-02-02T08:07:43.376Z,101722.91
2023-02-02T08:10:11.576Z,101724.69
2023-02-02T08:12:39.300Z,101733.41
2023-02-02T08:15:07.732Z,101731.66
2023-02-02T08:17:35.444Z,101735.13
2023-02-02T08:20:03.129Z,101741.25
2023-02-02T08:22:30.813Z,101748.25
2023-02-02T08:25:00.005Z,101755.28
2023-02-02T08:27:27.670Z,101759.63
2023-02-02T08:29:55.357Z,101763.16
2023-02-02T08:32:23.047Z,101764.03
2023-02-02T08:34:51.790Z,101764.03
2023-02-02T08:37:19.510Z,101764.88
2023-02-02T08:39:47.184Z,101769.25
2023-02-02T08:42:16.236Z,101776.28
2023-02-02T08:46:00.410Z,101775.38
2023-02-02T08:47:31.553Z,101784.13
2023-02-02T08:49:59.516Z,101791.13
2023-02-02T08:52:27.180Z,101785.88
2023-02-02T08:54:54.847Z,101789.38
2023-02-02T08:57:23.918Z,101798.09
2023-02-02T08:59:51.587Z,101796.34
2023-02-02T09:02:19.272Z,101794.63
2023-02-02T09:04:48.472Z,101802.44
2023-02-02T09:07:16.205Z,101807.66
2023-02-02T09:09:43.871Z,101821.69
2023-02-02T09:12:12.155Z,101828.66
2023-02-02T09:14:41.199Z,101829.56
2023-02-02T09:17:08.871Z,101829.53
2023-02-02T09:19:36.546Z,101836.53
2023-02-02T09:22:04.221Z,101833.91
2023-02-02T09:24:31.890Z,101835.63
2023-02-02T09:26:59.669Z,101835.63
2023-02-02T09:29:27.384Z,101839.97
2023-02-02T09:31:56.458Z,101839.13
2023-02-02T09:34:24.138Z,101839.13
2023-02-02T09:36:51.803Z,101850.47
2023-02-02T09:39:20.514Z,101856.63
2023-02-02T09:42:10.145Z,101860.97
2023-02-02T09:44:49.736Z,101856.59
2023-02-02T09:47:20.300Z,101860.06
2023-02-02T09:49:53.657Z,101873.19
2023-02-02T09:52:24.536Z,101869.72
2023-02-02T09:54:53.438Z,101874.06
2023-02-02T09:57:22.143Z,101877.59
2023-02-02T09:59:50.684Z,101886.28
2023-02-02T10:02:21.954Z,101881.91
2023-02-02T10:04:50.836Z,101891.53
2023-02-02T10:07:20.324Z,101903.75
2023-02-02T10:09:49.327Z,101901.97
2023-02-02T10:12:22.448Z,101904.59
2023-02-02T10:14:52.547Z,101906.31
2023-02-02T10:17:33.142Z,101908.03
2023-02-02T10:20:03.974Z,101915.91
2023-02-02T10:22:31.771Z,101922.00
2023-02-02T10:24:59.520Z,101925.50
2023-02-02T10:27:36.049Z,101937.75
2023-02-02T10:30:03.786Z,101942.09
2023-02-02T10:32:36.291Z,101939.47
2023-02-02T10:35:33.998Z,101949.97
2023-02-02T10:38:03.162Z,101950.84
2023-02-02T10:40:40.856Z,101941.19
2023-02-02T10:43:47.512Z,101951.69
2023-02-02T10:46:17.617Z,101954.31
2023-02-02T10:48:49.601Z,101958.66
2023-02-02T10:51:22.289Z,101961.31
2023-02-02T10:53:52.250Z,101966.50
2023-02-02T10:56:21.075Z,101970.84
2023-02-02T10:58:51.965Z,101976.09
2023-02-02T11:01:22.683Z,101976.94
2023-02-02T11:04:12.029Z,101972.56
2023-02-02T11:06:51.039Z,101977.81
2023-02-02T11:09:20.506Z,101971.66
2023-02-02T11:11:51.994Z,101971.66
2023-02-02T11:14:23.053Z,101964.59
2023-02-02T11:17:02.453Z,101966.31
2023-02-02T11:19:32.623Z,101961.97
2023-02-02T11:22:00.942Z,101974.19
2023-02-02T11:24:29.474Z,101976.78
2023-02-02T11:26:58.141Z,101975.91
2023-02-02T11:29:27.919Z,101976.78
2023-02-02T11:31:55.669Z,101975.94
2023-02-02T11:34:24.194Z,101988.19
2023-02-02T11:37:04.357Z,101983.78
2023-02-02T11:39:32.053Z,101982.00
2023-02-02T11:42:01.788Z,101982.00
2023-02-02T11:44:29.594Z,101988.19
2023-02-02T11:46:57.737Z,101993.47
2023-02-02T11:49:25.500Z,101983.81
2023-02-02T11:52:00.206Z,101978.56
2023-02-02T11:54:30.552Z,101988.19
2023-02-02T11:56:59.263Z,101991.69
2023-02-02T11:59:34.551Z,101990.78
2023-02-02T12:02:32.305Z,101989.97
2023-02-02T12:05:33.229Z,101989.06
2023-02-02T12:08:00.919Z,101988.22
2023-02-02T12:10:36.324Z,101990.81
2023-02-02T12:13:06.899Z,101990.81
2023-02-02T12:15:40.630Z,102000.47
2023-02-02T12:18:14.405Z,101996.09
2023-02-02T12:20:43.857Z,102002.19
2023-02-02T12:23:27.291Z,101994.31
2023-02-02T12:26:19.289Z,101988.19
2023-02-02T12:28:54.992Z,101995.19
2023-02-02T12:31:26.439Z,102002.19
2023-02-02T12:33:55.338Z,101992.59
2023-02-02T12:36:27.142Z,101996.94
2023-02-02T12:39:10.742Z,101989.94
2023-02-02T12:41:48.729Z,101998.69
2023-02-02T12:44:19.066Z,101994.31
2023-02-02T12:46:56.021Z,102001.31
2023-02-02T12:49:39.844Z,102003.03
2023-02-02T12:52:23.840Z,102014.41
2023-02-02T12:55:11.179Z,102002.19
2023-02-02T12:57:47.999Z,102007.38
2023-02-02T13:00:42.647Z,102007.38
2023-02-02T13:03:22.507Z,102012.63
2023-02-02T13:05:56.602Z,102011.72
2023-02-02T13:08:26.783Z,102019.56
2023-02-02T13:10:55.163Z,102021.25
2023-02-02T13:13:25.618Z,102015.09
2023-02-02T13:15:55.794Z,102014.16
2023-02-02T13:18:25.606Z,102011.53
2023-02-02T13:20:54.555Z,102021.97
2023-02-02T13:23:26.394Z,102007.06
2023-02-02T13:25:55.959Z,102010.50
2023-02-02T13:28:33.045Z,102018.34
2023-02-02T13:31:01.120Z,102025.34
2023-02-02T13:33:30.972Z,102018.34
2023-02-02T13:36:00.212Z,102026.19
2023-02-02T13:38:30.346Z,102028.78
2023-02-02T13:40:59.421Z,102022.69
2023-02-02T13:43:35.361Z,102023.53
2023-02-02T13:46:11.887Z,102027.94
2023-02-02T13:48:43.004Z,102029.66
2023-02-02T13:51:33.731Z,102030.56
2023-02-02T13:54:18.438Z,102027.88
2023-02-02T13:56:48.996Z,102027.03
2023-02-02T13:59:42.943Z,102024.41
2023-02-02T14:02:14.313Z,102030.50
2023-02-02T14:04:42.046Z,102032.28
2023-02-02T14:07:10.689Z,102033.13
2023-02-02T14:09:38.454Z,102035.75
2023-02-02T14:12:07.792Z,102040.13
2023-02-02T14:14:38.037Z,102037.47
2023-02-02T14:17:06.592Z,102037.47
2023-02-02T14:19:54.026Z,102034.84
2023-02-02T14:22:39.793Z,102035.75
2023-02-02T14:25:53.228Z,102042.78
2023-02-02T14:28:46.662Z,102045.44
2023-02-02T14:31:36.146Z,102053.31
2023-02-02T14:34:21.931Z,102052.44
2023-02-02T14:36:52.735Z,102053.31
2023-02-02T14:39:21.537Z,102055.06
2023-02-02T14:42:30.598Z,102070.00
2023-02-02T14:45:21.113Z,102076.16
2023-02-02T14:47:54.081Z,102070.91
2023-02-02T14:50:26.801Z,102073.53
2023-02-02T14:52:59.854Z,102074.41
2023-02-02T14:55:27.890Z,102088.44
2023-02-02T14:57:56.771Z,102077.06
2023-02-02T15:00:26.258Z,102091.09
2023-02-02T15:02:55.317Z,102089.31
2023-02-02T15:05:38.959Z,102091.09
2023-02-02T15:08:15.946Z,102092.84
2023-02-02T15:11:25.999Z,102098.13
2023-02-02T15:14:14.058Z,102092.00
2023-02-02T15:16:41.756Z,102092.91
2023-02-02T15:19:15.239Z,102096.44
2023-02-02T15:21:42.989Z,102099.91
2023-02-02T15:24:22.846Z,102107.84
2023-02-02T15:26:50.593Z,102108.72
2023-02-02T15:29:20.493Z,102114.00
2023-02-02T15:31:49.650Z,102108.75
2023-02-02T15:34:20.751Z,102114.88
2023-02-02T15:36:49.055Z,102118.41
2023-02-02T15:39:22.970Z,102119.28
2023-02-02T15:42:10.665Z,102128.06
2023-02-02T15:44:38.632Z,102129.81
2023-02-02T15:47:07.941Z,102138.59
2023-02-02T15:49:36.989Z,102136.84
2023-02-02T15:52:11.887Z,102135.13
2023-02-02T15:54:39.591Z,102135.13
2023-02-02T15:57:23.726Z,102141.22
2023-02-02T15:59:51.406Z,102142.13
2023-02-02T16:02:22.508Z,102142.13
2023-02-02T16:04:51.692Z,102140.41
2023-02-02T16:07:20.942Z,102133.41
2023-02-02T16:09:48.689Z,102146.53
2023-02-02T16:12:18.627Z,102142.19
2023-02-02T16:14:46.486Z,102148.31
2023-02-02T16:17:14.612Z,102145.69
2023-02-02T16:19:43.144Z,102155.31
2023-02-02T16:22:15.238Z,102152.69
2023-02-02T16:24:44.280Z,102157.94
2023-02-02T16:27:13.890Z,102163.22
2023-02-02T16:29:42.115Z,102164.94
2023-02-02T16:32:26.584Z,102161.47
2023-02-02T16:34:54.283Z,102156.22
2023-02-02T16:37:27.306Z,102158.84
2023-02-02T16:39:55.762Z,102166.72
2023-02-02T16:42:25.557Z,102164.09
2023-02-02T16:44:53.325Z,102165.00
2023-02-02T16:47:41.510Z,102171.16
2023-02-02T16:50:25.825Z,102175.50
2023-02-02T16:52:56.125Z,102165.91
2023-02-02T16:55:24.166Z,102170.25
2023-02-02T16:57:52.175Z,102172.88
2023-02-02T17:00:21.359Z,102169.41
2023-02-02T17:02:49.892Z,102172.03
2023-02-02T17:05:20.714Z,102165.03
2023-02-02T17:07:49.237Z,102160.63
2023-02-02T17:10:26.540Z,102164.16
2023-02-02T17:12:54.260Z,102159.78
2023-02-02T17:15:34.118Z,102153.66
2023-02-02T17:18:02.416Z,102152.75
2023-02-02T17:20:30.158Z,102155.38
2023-02-02T17:22:59.523Z,102157.16
2023-02-02T17:25:30.783Z,102162.41
2023-02-02T17:27:59.528Z,102158.91
2023-02-02T17:30:27.378Z,102151.03
2023-02-02T17:32:55.120Z,102138.78
2023-02-02T17:35:24.016Z,102140.53
2023-02-02T17:37:52.812Z,102141.41
2023-02-02T17:40:21.024Z,102143.16
2023-02-02T17:42:50.887Z,102144.88
2023-02-02T17:45:19.898Z,102151.03
2023-02-02T17:47:47.598Z,102144.88
2023-02-02T17:50:15.355Z,102144.03
2023-02-02T17:52:43.053Z,102144.03
2023-02-02T17:55:12.692Z,102141.41
2023-02-02T17:57:40.406Z,102144.94
2023-02-02T18:00:11.263Z,102143.16
2023-02-02T18:02:39.231Z,102149.28
2023-02-02T18:05:07.723Z,102139.69
2023-02-02T18:07:35.456Z,102143.16
2023-02-02T18:10:03.193Z,102135.28
2023-02-02T18:12:30.922Z,102143.16
2023-02-02T18:14:58.597Z,102135.28
2023-02-02T18:17:28.175Z,102131.78
2023-02-02T18:19:56.711Z,102130.00
2023-02-02T18:22:24.613Z,102140.53
2023-02-02T18:24:52.280Z,102142.25
2023-02-02T18:27:20.320Z,102145.75
2023-02-02T18:29:48.320Z,102136.09
2023-02-02T18:32:16.058Z,102136.09
2023-02-02T18:34:45.666Z,102129.06
2023-02-02T18:37:13.362Z,102121.22
2023-02-02T18:39:41.086Z,102133.47
2023-02-02T18:42:08.763Z,102130.81
2023-02-02T18:44:38.311Z,102133.47
2023-02-02T18:47:06.096Z,102122.94
2023-02-02T18:49:33.770Z,102118.53
2023-02-02T18:52:03.457Z,102122.06
2023-02-02T18:54:32.343Z,102109.78
2023-02-02T18:57:00.211Z,102101.03
2023-02-02T18:59:28.483Z,102098.44
2023-02-02T19:01:56.267Z,102092.31
2023-02-02T19:04:23.951Z,102087.06
2023-02-02T19:07:09.187Z,102090.53
2023-02-02T19:09:38.230Z,102085.28
2023-02-02T19:12:12.130Z,102080.94
2023-02-02T19:14:39.897Z,102086.19
2023-02-02T19:17:13.467Z,102080.94
2023-02-02T19:19:42.838Z,102079.19
2023-02-02T19:22:18.520Z,102057.28
2023-02-02T19:24:47.630Z,102053.75
2023-02-02T19:27:18.012Z,102056.38
2023-02-02T19:29:45.808Z,102052.88
2023-02-02T19:32:15.004Z,102046.78
2023-02-02T19:34:42.674Z,102046.78
2023-02-02T19:37:22.755Z,102043.25
2023-02-02T19:39:51.897Z,102028.38
2023-02-02T19:42:19.610Z,102029.22
2023-02-02T19:44:47.294Z,102038.00
2023-02-02T19:47:21.259Z,102036.25
2023-02-02T19:49:48.922Z,102024.84
2023-02-02T19:52:19.314Z,102036.25
2023-02-02T19:54:48.818Z,102028.38
2023-02-02T19:57:20.766Z,102025.75
2023-02-02T19:59:49.938Z,102018.72
2023-02-02T20:02:38.049Z,102017.81
2023-02-02T20:05:14.407Z,102015.19
2023-02-02T20:07:42.078Z,102007.28
2023-02-02T20:10:18.909Z,102004.66
2023-02-02T20:12:47.975Z,102000.31
2023-02-02T20:15:23.457Z,101988.09
2023-02-02T20:17:51.578Z,101989.84
2023-02-02T20:20:23.314Z,101978.47
2023-02-02T20:22:51.100Z,101985.44
2023-02-02T20:25:18.991Z,101978.47
2023-02-02T20:27:48.058Z,101973.19
2023-02-02T20:30:24.390Z,101970.56
2023-02-02T20:32:55.077Z,101967.03
2023-02-02T20:35:30.408Z,101958.28
2023-02-02T20:37:58.142Z,101960.91
2023-02-02T20:40:26.900Z,101947.78
2023-02-02T20:42:57.695Z,101941.63
2023-02-02T20:45:25.651Z,101944.25
2023-02-02T20:47:53.417Z,101946.88
2023-02-02T20:50:21.912Z,101951.28
2023-02-02T20:52:50.910Z,101946.84
2023-02-02T20:55:18.833Z,101936.34
2023-02-02T20:57:46.886Z,101931.09
2023-02-02T21:00:16.653Z,101930.19
2023-02-02T21:02:44.459Z,101931.06
2023-02-02T21:05:12.193Z,101931.97
2023-02-02T21:07:40.005Z,101928.47
2023-02-02T21:10:08.295Z,101931.09
2023-02-02T21:12:36.005Z,101928.47
2023-02-02T21:15:04.085Z,101919.69
2023-02-02T21:17:33.173Z,101925.00
2023-02-02T21:20:00.885Z,101926.75
2023-02-02T21:22:28.617Z,101913.59
2023-02-02T21:24:56.399Z,101908.34
2023-02-02T21:27:24.219Z,101905.72
2023-02-02T21:29:51.963Z,101900.47
2023-02-02T21:32:19.654Z,101897.84
2023-02-02T21:34:49.665Z,101882.09
2023-02-02T21:37:17.481Z,101882.06
2023-02-02T21:39:48.500Z,101880.34
2023-02-02T21:42:17.305Z,101868.06
2023-02-02T21:44:46.118Z,101867.22
2023-02-02T21:47:24.470Z,101868.13
2023-02-02T21:49:53.588Z,101864.63
2023-02-02T21:52:21.395Z,101845.38
2023-02-02T21:54:49.141Z,101848.88
2023-02-02T21:57:18.462Z,101836.63
2023-02-02T21:59:46.716Z,101834.00
2023-02-02T22:02:38.965Z,101828.72
2023-02-02T22:05:18.855Z,101827.84
2023-02-02T22:07:47.533Z,101818.25
2023-02-02T22:10:31.159Z,101807.72
2023-02-02T22:12:58.869Z,101804.19
2023-02-02T22:15:28.246Z,101796.31
2023-02-02T22:17:55.971Z,101792.84
2023-02-02T22:20:32.125Z,101794.56
2023-02-02T22:22:59.819Z,101788.41
2023-02-02T22:25:32.079Z,101786.66
2023-02-02T22:28:00.264Z,101791.94
2023-02-02T22:30:29.851Z,101790.19
2023-02-02T22:32:57.858Z,101788.44
2023-02-02T22:35:26.918Z,101770.03
2023-02-02T22:37:54.600Z,101762.19
2023-02-02T22:40:23.311Z,101751.66
2023-02-02T22:42:51.186Z,101754.31
2023-02-02T22:45:18.846Z,101748.19
2023-02-02T22:47:47.469Z,101743.84
2023-02-02T22:50:15.479Z,101742.06
2023-02-02T22:52:44.509Z,101725.47
2023-02-02T22:55:12.281Z,101713.22
2023-02-02T22:57:39.957Z,101709.72
2023-02-02T23:00:10.468Z,101708.84
2023-02-02T23:02:38.167Z,101704.47
2023-02-02T23:05:06.197Z,101705.38
2023-02-02T23:07:33.867Z,101706.22
2023-02-02T23:10:02.922Z,101703.59
2023-02-02T23:12:30.603Z,101687.00
2023-02-02T23:14:58.328Z,101687.00
2023-02-02T23:17:26.005Z,101677.38
2023-02-02T23:19:53.691Z,101679.13
2023-02-02T23:22:21.390Z,101681.75
2023-02-02T23:24:49.090Z,101691.38
2023-02-02T23:27:18.135Z,101689.63
2023-02-02T23:29:45.819Z,101687.03
2023-02-02T23:32:13.536Z,101680.94
2023-02-02T23:34:41.231Z,101687.94
2023-02-02T23:37:08.917Z,101680.06
2023-02-02T23:39:36.578Z,101681.00
2023-02-02T23:42:04.393Z,101697.63
2023-02-02T23:44:33.436Z,101690.66
2023-02-02T23:47:02.115Z,101695.03
2023-02-02T23:49:29.801Z,101690.69
2023-02-02T23:51:57.460Z,101688.16
2023-02-02T23:54:25.130Z,101688.16
2023-02-02T23:56:52.790Z,101696.91
2023-02-02T23:59:20.461Z,101698.69
